Time;durP1;ratioP1;P1;durP2;ratioP2;P2;SDS_P1;SDS_P2;PMS_P1;PMS_P2;Temp;Humidity;BMP_temperature;BMP_pressure;BME280_temperature;BME280_humidity;BME280_pressure;Samples;Min_cycle;Max_cycle;Signal;HPM_P1;HPM_P2
2021/06/09 00:00:40;;;;;;;1.33;1.20;;;19.70;99.90;;;;;;5068759;28;20103;-56
2021/06/09 00:03:06;;;;;;;1.40;1.30;;;19.60;99.90;;;;;;5068852;28;20083;-56
2021/06/09 00:05:32;;;;;;;1.20;1.10;;;19.70;99.90;;;;;;5068593;28;20108;-57
2021/06/09 00:07:58;;;;;;;1.30;1.20;;;19.70;99.90;;;;;;5069180;28;20032;-56
2021/06/09 00:10:24;;;;;;;1.00;1.00;;;19.80;99.90;;;;;;5068560;28;20028;-56
2021/06/09 00:12:50;;;;;;;1.40;1.30;;;19.70;99.90;;;;;;5069587;28;20075;-56
2021/06/09 00:15:17;;;;;;;1.20;1.10;;;19.70;99.90;;;;;;5069786;28;20029;-56
2021/06/09 00:17:43;;;;;;;1.33;1.17;;;19.70;99.90;;;;;;5068229;28;20025;-56
2021/06/09 00:20:15;;;;;;;1.25;1.15;;;19.60;99.90;;;;;;5068646;28;20564;-56
2021/06/09 00:22:41;;;;;;;0.93;0.90;;;19.70;99.90;;;;;;5067900;28;20048;-57
2021/06/09 00:25:14;;;;;;;1.40;1.30;;;19.70;99.90;;;;;;5068483;28;20044;-57
2021/06/09 00:27:41;;;;;;;1.10;1.00;;;19.60;99.90;;;;;;5068566;28;20033;-56
2021/06/09 00:30:08;;;;;;;0.93;0.93;;;19.50;99.90;;;;;;5068821;28;20103;-56
2021/06/09 00:32:34;;;;;;;1.15;1.05;;;19.60;99.90;;;;;;5068587;28;20406;-57
2021/06/09 00:35:00;;;;;;;1.35;1.05;;;19.60;99.90;;;;;;5068667;28;20107;-57
2021/06/09 00:37:25;;;;;;;1.25;1.15;;;19.60;99.90;;;;;;5068624;28;20398;-57
2021/06/09 00:39:51;;;;;;;1.05;0.95;;;19.70;99.90;;;;;;5083897;28;20030;-56
2021/06/09 00:42:20;;;;;;;1.20;1.10;;;19.70;99.90;;;;;;5089422;28;20032;-56
2021/06/09 00:44:47;;;;;;;0.95;0.95;;;19.70;99.90;;;;;;5089231;28;20121;-56
2021/06/09 00:47:20;;;;;;;1.00;0.90;;;19.70;99.90;;;;;;5089009;28;20089;-56
2021/06/09 00:49:45;;;;;;;0.90;0.90;;;19.70;99.90;;;;;;5088850;28;20036;-56
2021/06/09 00:52:11;;;;;;;0.93;0.90;;;19.80;99.90;;;;;;5088851;28;20099;-56
2021/06/09 00:54:37;;;;;;;1.10;1.00;;;19.70;99.90;;;;;;5087953;28;20072;-57
2021/06/09 00:57:04;;;;;;;1.08;1.00;;;19.80;99.90;;;;;;5088728;28;20032;-57
2021/06/09 00:59:32;;;;;;;1.00;0.90;;;19.80;99.90;;;;;;5088098;28;20024;-57
2021/06/09 01:01:58;;;;;;;1.02;0.90;;;19.80;99.90;;;;;;5088559;28;20035;-56
2021/06/09 01:04:24;;;;;;;0.90;0.90;;;19.60;99.90;;;;;;5083575;28;20024;-56
2021/06/09 01:06:50;;;;;;;0.85;0.85;;;19.60;99.90;;;;;;5068559;28;20036;-56
2021/06/09 01:09:16;;;;;;;0.90;0.90;;;19.60;99.90;;;;;;5067900;28;20036;-57
2021/06/09 01:11:41;;;;;;;1.20;1.10;;;19.50;99.90;;;;;;5067403;28;20024;-56
2021/06/09 01:14:07;;;;;;;1.20;1.10;;;19.30;99.90;;;;;;5067665;28;20031;-57
2021/06/09 01:16:33;;;;;;;1.48;1.20;;;19.40;99.90;;;;;;5067432;28;20020;-57
2021/06/09 01:18:58;;;;;;;1.10;1.00;;;19.40;99.90;;;;;;5068138;28;20423;-56
2021/06/09 01:21:29;;;;;;;0.80;0.80;;;19.30;99.90;;;;;;5066748;28;20421;-57
2021/06/09 01:23:55;;;;;;;1.08;0.90;;;19.40;99.90;;;;;;5067721;28;20022;-57
2021/06/09 01:26:21;;;;;;;1.33;1.23;;;19.20;99.90;;;;;;5067674;28;20029;-57
2021/06/09 01:28:47;;;;;;;1.30;1.20;;;19.30;99.90;;;;;;5067621;28;20028;-56
2021/06/09 01:31:13;;;;;;;0.95;0.95;;;19.20;99.90;;;;;;5067869;28;20055;-56
2021/06/09 01:33:39;;;;;;;1.02;0.93;;;19.20;99.90;;;;;;5067126;28;20099;-56
2021/06/09 01:36:05;;;;;;;1.10;1.00;;;19.30;99.90;;;;;;5067793;28;20128;-56
2021/06/09 01:38:31;;;;;;;0.95;0.95;;;19.30;99.90;;;;;;5072081;28;20557;-57
2021/06/09 01:40:57;;;;;;;1.30;1.20;;;19.10;99.90;;;;;;5087648;28;20112;-56
2021/06/09 01:43:23;;;;;;;1.13;1.10;;;19.00;99.90;;;;;;5087228;28;20099;-56
2021/06/09 01:45:50;;;;;;;2.90;1.10;;;19.00;99.90;;;;;;5087538;28;20567;-56
2021/06/09 01:48:16;;;;;;;1.20;1.10;;;19.10;99.90;;;;;;5086817;28;20070;-56
2021/06/09 01:50:42;;;;;;;1.05;1.05;;;19.30;99.90;;;;;;5087162;28;20032;-57
2021/06/09 01:53:08;;;;;;;1.40;1.30;;;19.20;99.90;;;;;;5087502;28;20078;-56
2021/06/09 01:55:36;;;;;;;1.50;1.20;;;19.10;99.90;;;;;;5085673;28;20030;-57
2021/06/09 01:58:02;;;;;;;1.55;1.30;;;19.10;99.90;;;;;;5088166;28;20024;-56
2021/06/09 02:00:47;;;;;;;1.23;1.13;;;19.10;99.90;;;;;;5087797;28;20026;-57
2021/06/09 02:03:15;;;;;;;1.58;1.38;;;19.10;99.90;;;;;;5086974;28;20081;-56
2021/06/09 02:05:42;;;;;;;1.30;1.20;;;19.20;99.90;;;;;;5086897;28;20058;-56
2021/06/09 02:08:10;;;;;;;1.20;1.10;;;19.20;99.90;;;;;;5087326;28;20081;-56
2021/06/09 02:10:37;;;;;;;1.50;1.40;;;19.30;99.90;;;;;;5087113;28;20063;-57
2021/06/09 02:13:10;;;;;;;1.77;1.40;;;19.30;99.90;;;;;;5087297;28;20024;-56
2021/06/09 02:15:36;;;;;;;1.33;1.23;;;19.30;99.90;;;;;;5086500;28;20059;-56
2021/06/09 02:18:10;;;;;;;1.40;1.30;;;19.30;99.90;;;;;;5087156;28;20072;-56
2021/06/09 02:20:57;;;;;;;1.27;1.17;;;19.30;99.90;;;;;;5086454;28;20548;-56
2021/06/09 02:23:25;;;;;;;1.90;1.40;;;19.30;99.90;;;;;;5086616;28;20521;-56
2021/06/09 02:25:54;;;;;;;1.42;1.20;;;19.20;99.90;;;;;;5086914;28;20032;-57
2021/06/09 02:28:22;;;;;;;1.52;1.40;;;19.20;99.90;;;;;;5086976;28;20020;-56
2021/06/09 02:30:49;;;;;;;2.17;1.30;;;19.10;99.90;;;;;;5086579;28;20023;-57
2021/06/09 02:33:17;;;;;;;1.38;1.27;;;19.10;99.90;;;;;;5086748;28;20355;-56
2021/06/09 02:35:44;;;;;;;1.40;1.30;;;19.10;99.90;;;;;;5086308;28;20034;-56
2021/06/09 02:38:11;;;;;;;1.30;1.20;;;19.10;99.90;;;;;;5085518;28;20020;-56
2021/06/09 02:40:39;;;;;;;3.15;1.40;;;19.00;99.90;;;;;;5066025;28;20028;-56
2021/06/09 02:43:06;;;;;;;1.38;1.27;;;19.00;99.90;;;;;;5066657;28;20036;-56
2021/06/09 02:45:32;;;;;;;1.48;1.38;;;19.10;99.90;;;;;;5066154;28;20079;-56
2021/06/09 02:48:02;;;;;;;1.30;1.20;;;19.00;99.90;;;;;;5066784;28;20521;-56
2021/06/09 02:50:29;;;;;;;1.65;1.52;;;19.00;99.90;;;;;;5066789;28;20012;-56
2021/06/09 02:53:16;;;;;;;3.33;1.40;;;19.00;99.90;;;;;;5066221;28;20090;-56
2021/06/09 02:56:10;;;;;;;1.45;1.35;;;19.00;99.90;;;;;;5066088;28;20024;-57
2021/06/09 02:58:56;;;;;;;1.98;1.67;;;19.00;99.90;;;;;;5066177;28;20064;-56
2021/06/09 03:01:30;;;;;;;1.48;1.38;;;19.10;99.90;;;;;;5068835;28;20799;-57
2021/06/09 03:04:17;;;;;;;2.13;1.75;;;19.00;99.90;;;;;;5074819;28;20036;-56
2021/06/09 03:06:56;;;;;;;1.40;1.30;;;19.00;99.90;;;;;;5090899;28;20054;-57
2021/06/09 03:09:49;;;;;;;1.40;1.30;;;19.00;99.90;;;;;;5089886;28;20109;-56
2021/06/09 03:12:24;;;;;;;2.50;1.63;;;19.10;99.90;;;;;;5090283;28;20517;-56
2021/06/09 03:15:14;;;;;;;1.65;1.55;;;19.10;99.90;;;;;;5090264;28;20024;-56
2021/06/09 03:17:54;;;;;;;1.60;1.50;;;19.10;99.90;;;;;;5089734;28;20020;-56
2021/06/09 03:20:44;;;;;;;1.55;1.45;;;19.20;99.90;;;;;;5089560;28;20016;-56
2021/06/09 03:23:16;;;;;;;2.05;1.60;;;19.10;99.90;;;;;;5090170;28;20677;-56
2021/06/09 03:25:53;;;;;;;2.20;1.60;;;19.10;99.90;;;;;;5090033;28;20030;-56
2021/06/09 03:28:29;;;;;;;1.58;1.48;;;19.10;99.90;;;;;;5090278;28;20498;-56
2021/06/09 03:31:01;;;;;;;1.90;1.70;;;19.10;99.90;;;;;;5090052;28;20031;-56
2021/06/09 03:33:35;;;;;;;2.20;1.55;;;19.20;99.90;;;;;;5089867;28;20027;-57
2021/06/09 03:36:10;;;;;;;1.58;1.48;;;19.20;99.90;;;;;;5090752;28;20038;-56
2021/06/09 03:38:44;;;;;;;1.98;1.73;;;19.20;99.90;;;;;;5084747;28;20029;-56
2021/06/09 03:41:13;;;;;;;1.55;1.45;;;19.30;99.90;;;;;;5069267;28;20060;-56
2021/06/09 03:43:44;;;;;;;1.52;1.42;;;19.20;99.90;;;;;;5069374;28;20473;-56
2021/06/09 03:46:10;;;;;;;1.60;1.50;;;19.30;99.90;;;;;;5069788;28;20021;-56
2021/06/09 03:48:39;;;;;;;1.63;1.52;;;19.30;99.90;;;;;;5069999;28;20564;-56
2021/06/09 03:51:07;;;;;;;1.70;1.60;;;19.30;99.90;;;;;;5089343;28;20032;-56
2021/06/09 03:53:33;;;;;;;1.70;1.60;;;19.20;99.90;;;;;;5089472;28;20020;-56
2021/06/09 03:56:04;;;;;;;2.30;1.60;;;19.30;99.90;;;;;;5089627;28;20024;-57
2021/06/09 03:58:32;;;;;;;1.75;1.65;;;19.20;99.90;;;;;;5090047;28;20426;-56
2021/06/09 04:00:59;;;;;;;1.95;1.77;;;19.20;99.90;;;;;;5089647;28;20103;-56
2021/06/09 04:03:26;;;;;;;1.65;1.55;;;19.20;99.90;;;;;;5089143;28;20445;-56
2021/06/09 04:05:55;;;;;;;2.53;1.63;;;19.10;99.90;;;;;;5089536;28;20028;-56
2021/06/09 04:08:21;;;;;;;2.03;1.77;;;19.10;99.90;;;;;;5089650;28;20050;-57
2021/06/09 04:10:48;;;;;;;1.60;1.50;;;19.20;99.90;;;;;;5089219;28;20024;-56
2021/06/09 04:13:16;;;;;;;2.10;1.90;;;19.10;99.90;;;;;;5088929;28;20119;-56
2021/06/09 04:15:43;;;;;;;1.90;1.70;;;19.10;99.90;;;;;;5088629;28;20028;-57
2021/06/09 04:18:10;;;;;;;1.88;1.67;;;19.10;99.90;;;;;;5088935;28;20055;-56
2021/06/09 04:20:38;;;;;;;1.90;1.70;;;19.10;99.90;;;;;;5088239;28;20047;-56
2021/06/09 04:23:04;;;;;;;2.03;1.60;;;19.20;99.90;;;;;;5087868;28;20067;-56
2021/06/09 04:25:31;;;;;;;2.15;1.70;;;19.20;99.90;;;;;;5089359;28;20097;-56
2021/06/09 04:27:58;;;;;;;1.92;1.73;;;19.20;99.90;;;;;;5088895;28;20024;-56
2021/06/09 04:30:23;;;;;;;2.25;2.00;;;19.30;99.90;;;;;;5088743;28;20111;-56
2021/06/09 04:32:54;;;;;;;2.20;2.00;;;19.30;99.90;;;;;;5088706;28;20104;-57
2021/06/09 04:35:23;;;;;;;2.10;1.80;;;19.30;99.90;;;;;;5088950;28;20024;-56
2021/06/09 04:37:49;;;;;;;2.13;1.90;;;19.30;99.90;;;;;;5088959;28;20044;-56
2021/06/09 04:40:20;;;;;;;1.88;1.70;;;19.40;99.90;;;;;;5089011;28;20634;-56
2021/06/09 04:42:48;;;;;;;1.98;1.83;;;19.40;99.90;;;;;;5088639;28;20024;-56
2021/06/09 04:45:15;;;;;;;2.25;2.05;;;19.40;99.90;;;;;;5088631;28;20059;-56
2021/06/09 04:47:41;;;;;;;1.70;1.60;;;19.40;99.90;;;;;;5088165;28;20459;-56
2021/06/09 04:50:08;;;;;;;1.85;1.63;;;19.50;99.90;;;;;;5088680;28;20020;-56
2021/06/09 04:52:35;;;;;;;1.77;1.67;;;19.20;99.90;;;;;;5088312;28;20099;-56
2021/06/09 04:55:00;;;;;;;2.30;2.10;;;19.10;99.90;;;;;;5089005;28;20032;-56
2021/06/09 04:57:26;;;;;;;1.75;1.63;;;19.20;99.90;;;;;;5088278;28;20092;-57
2021/06/09 04:59:52;;;;;;;3.05;1.92;;;19.30;99.90;;;;;;5088180;28;20390;-57
2021/06/09 05:02:19;;;;;;;2.20;2.00;;;19.40;99.90;;;;;;5084681;28;20031;-57
2021/06/09 05:04:44;;;;;;;1.80;1.60;;;19.30;99.90;;;;;;5068082;28;20394;-57
2021/06/09 05:07:10;;;;;;;1.80;1.70;;;19.20;99.90;;;;;;5068128;28;20103;-56
2021/06/09 05:09:36;;;;;;;1.70;1.60;;;19.20;99.90;;;;;;5067710;28;20056;-56
2021/06/09 05:12:12;;;;;;;1.98;1.77;;;19.20;99.90;;;;;;5068664;28;20021;-56
2021/06/09 05:14:48;;;;;;;2.45;1.85;;;19.30;99.90;;;;;;5066072;28;20115;-56
2021/06/09 05:17:19;;;;;;;1.60;1.50;;;19.20;99.90;;;;;;5065987;28;20029;-56
2021/06/09 05:19:48;;;;;;;2.17;1.92;;;19.30;99.90;;;;;;5066690;28;20024;-56
2021/06/09 05:22:24;;;;;;;1.90;1.80;;;19.30;99.90;;;;;;5067917;28;20021;-56
2021/06/09 05:24:51;;;;;;;2.00;1.80;;;19.30;99.90;;;;;;5066795;28;20375;-56
2021/06/09 05:27:23;;;;;;;2.05;1.90;;;19.30;99.90;;;;;;5067783;28;20031;-56
2021/06/09 05:29:50;;;;;;;2.33;2.00;;;19.30;99.90;;;;;;5067371;28;20044;-57
2021/06/09 05:32:17;;;;;;;2.20;1.80;;;19.30;99.90;;;;;;5067544;28;20077;-56
2021/06/09 05:34:45;;;;;;;2.17;1.98;;;19.30;99.90;;;;;;5067130;28;20437;-57
2021/06/09 05:37:14;;;;;;;2.13;1.80;;;19.40;99.90;;;;;;5067664;28;20023;-56
2021/06/09 05:39:41;;;;;;;1.85;1.75;;;19.50;99.90;;;;;;5080203;28;20028;-56
2021/06/09 05:42:12;;;;;;;1.98;1.77;;;19.60;99.90;;;;;;5087707;28;20023;-56
2021/06/09 05:44:48;;;;;;;1.95;1.80;;;19.60;99.90;;;;;;5086794;28;20454;-57
2021/06/09 05:47:14;;;;;;;2.10;1.90;;;19.50;99.90;;;;;;5087211;28;20028;-56
2021/06/09 05:49:40;;;;;;;2.40;2.20;;;19.50;99.90;;;;;;5086802;28;20040;-56
2021/06/09 05:52:06;;;;;;;2.10;1.90;;;19.50;99.90;;;;;;5087265;28;20102;-57
2021/06/09 05:54:35;;;;;;;2.28;1.90;;;19.50;99.90;;;;;;5087401;28;20040;-56
2021/06/09 05:57:03;;;;;;;2.17;1.85;;;19.50;99.90;;;;;;5087785;28;20016;-56
2021/06/09 05:59:29;;;;;;;1.88;1.77;;;19.60;99.90;;;;;;5086532;28;20020;-56
2021/06/09 06:01:55;;;;;;;2.20;1.80;;;19.60;99.90;;;;;;5086866;28;20615;-56
2021/06/09 06:04:21;;;;;;;2.08;1.83;;;19.50;99.90;;;;;;5087020;28;20449;-57
2021/06/09 06:06:48;;;;;;;2.47;2.28;;;19.60;99.90;;;;;;5086748;28;20056;-56
2021/06/09 06:09:15;;;;;;;2.22;1.80;;;19.60;99.90;;;;;;5086840;28;20089;-56
2021/06/09 06:11:42;;;;;;;2.17;1.98;;;19.60;99.90;;;;;;5086534;28;20024;-56
2021/06/09 06:14:10;;;;;;;2.42;2.20;;;19.60;99.90;;;;;;5086585;28;20036;-56
2021/06/09 06:16:37;;;;;;;2.58;2.20;;;19.60;99.90;;;;;;5085835;28;20451;-56
2021/06/09 06:19:04;;;;;;;2.22;2.03;;;19.70;99.90;;;;;;5086746;28;20024;-56
2021/06/09 06:21:30;;;;;;;2.30;2.03;;;19.70;99.90;;;;;;5086554;28;20023;-56
2021/06/09 06:23:57;;;;;;;2.05;1.85;;;19.70;99.90;;;;;;5086285;28;20036;-56
2021/06/09 06:26:24;;;;;;;2.50;2.03;;;19.80;99.90;;;;;;5086820;28;20020;-56
2021/06/09 06:28:52;;;;;;;2.55;2.25;;;19.70;99.90;;;;;;5086359;28;20085;-56
2021/06/09 06:31:24;;;;;;;2.38;2.17;;;19.70;99.90;;;;;;5086668;28;20024;-56
2021/06/09 06:33:55;;;;;;;2.15;1.95;;;19.80;99.90;;;;;;5086344;28;20035;-56
2021/06/09 06:36:23;;;;;;;2.42;2.22;;;19.80;99.90;;;;;;5086248;28;20038;-56
2021/06/09 06:38:50;;;;;;;2.40;2.20;;;19.80;99.90;;;;;;5079808;28;20356;-57
2021/06/09 06:41:17;;;;;;;2.42;2.22;;;19.80;99.90;;;;;;5066200;28;20028;-57
2021/06/09 06:43:42;;;;;;;2.90;2.22;;;19.60;99.90;;;;;;5066008;28;20056;-56
2021/06/09 06:46:17;;;;;;;1.92;1.83;;;19.60;99.90;;;;;;5065952;28;20651;-56
2021/06/09 06:48:47;;;;;;;2.05;1.92;;;19.80;99.90;;;;;;5067544;28;20040;-56
2021/06/09 06:51:15;;;;;;;2.05;1.85;;;19.80;99.90;;;;;;5085136;28;20032;-57
2021/06/09 06:53:42;;;;;;;2.17;2.00;;;20.00;99.90;;;;;;5070829;28;20043;-57
2021/06/09 06:56:09;;;;;;;2.22;2.00;;;20.00;99.90;;;;;;5084759;28;20418;-57
2021/06/09 06:58:36;;;;;;;2.88;2.60;;;19.80;99.90;;;;;;5072791;28;20021;-57
2021/06/09 07:01:03;;;;;;;2.33;2.13;;;19.90;99.90;;;;;;5075470;28;20043;-56
2021/06/09 07:03:30;;;;;;;2.40;2.20;;;20.00;99.90;;;;;;5083506;28;20454;-57
2021/06/09 07:05:56;;;;;;;2.60;2.10;;;20.00;99.90;;;;;;5065652;28;20067;-57
2021/06/09 07:08:23;;;;;;;2.25;2.03;;;20.00;99.90;;;;;;5065976;28;20032;-57
2021/06/09 07:10:51;;;;;;;2.00;1.80;;;20.10;99.90;;;;;;5065804;28;20110;-57
2021/06/09 07:13:17;;;;;;;2.20;2.00;;;20.20;99.90;;;;;;5065662;28;20484;-57
2021/06/09 07:15:45;;;;;;;2.45;2.17;;;20.20;99.90;;;;;;5064970;28;20025;-58
2021/06/09 07:18:11;;;;;;;1.90;1.75;;;20.20;99.90;;;;;;5081231;28;20028;-57
2021/06/09 07:20:37;;;;;;;2.20;1.63;;;20.00;99.90;;;;;;5085681;28;20016;-57
2021/06/09 07:23:03;;;;;;;2.13;1.90;;;20.10;99.90;;;;;;5085903;28;20038;-58
2021/06/09 07:25:30;;;;;;;2.22;2.00;;;20.10;99.90;;;;;;5085223;28;20024;-57
2021/06/09 07:28:04;;;;;;;2.10;1.90;;;20.00;99.90;;;;;;5085269;28;20115;-57
2021/06/09 07:30:34;;;;;;;2.13;1.80;;;20.00;99.90;;;;;;5084139;28;20016;-58
2021/06/09 07:33:03;;;;;;;2.20;2.00;;;20.20;99.90;;;;;;5083288;28;20028;-57
2021/06/09 07:35:29;;;;;;;2.38;2.17;;;20.20;99.90;;;;;;5077540;28;20609;-58
2021/06/09 07:38:02;;;;;;;2.03;1.83;;;20.30;99.90;;;;;;5084301;28;20024;-58
2021/06/09 07:40:33;;;;;;;2.60;2.40;;;20.40;99.90;;;;;;5073467;28;20565;-57
2021/06/09 07:43:03;;;;;;;2.42;2.22;;;20.30;99.90;;;;;;5064199;28;20056;-57
2021/06/09 07:45:30;;;;;;;2.38;2.17;;;20.20;99.90;;;;;;5064053;28;20013;-57
2021/06/09 07:47:58;;;;;;;2.60;2.40;;;19.90;99.90;;;;;;5066992;28;20191;-58
2021/06/09 07:50:36;;;;;;;2.63;2.42;;;20.00;99.90;;;;;;5070180;28;20029;-58
2021/06/09 07:53:07;;;;;;;1.92;1.70;;;20.20;99.90;;;;;;5093063;28;20039;-58
2021/06/09 07:55:35;;;;;;;2.20;2.00;;;20.30;99.90;;;;;;5089530;28;20016;-56
2021/06/09 07:58:02;;;;;;;2.03;1.83;;;20.20;99.90;;;;;;5081209;28;20060;-56
2021/06/09 08:00:29;;;;;;;2.08;1.90;;;20.30;99.90;;;;;;5075897;28;20389;-58
2021/06/09 08:02:56;;;;;;;2.03;1.83;;;20.50;99.90;;;;;;5086789;28;20119;-57
2021/06/09 08:05:24;;;;;;;2.08;1.77;;;20.50;99.90;;;;;;5067448;28;20032;-57
2021/06/09 08:07:50;;;;;;;2.13;1.92;;;20.40;99.90;;;;;;5072705;28;20055;-58
2021/06/09 08:10:15;;;;;;;2.47;1.80;;;20.50;99.90;;;;;;5089033;28;20048;-59
2021/06/09 08:12:41;;;;;;;2.10;1.88;;;20.70;99.90;;;;;;5088026;28;20028;-58
2021/06/09 08:15:08;;;;;;;1.80;1.70;;;20.70;99.90;;;;;;5108472;28;20028;-58
2021/06/09 08:17:35;;;;;;;2.00;1.80;;;20.80;99.90;;;;;;5109688;28;20016;-58
2021/06/09 08:20:02;;;;;;;2.30;2.08;;;20.80;99.90;;;;;;5078404;28;20534;-58
2021/06/09 08:22:27;;;;;;;2.20;2.00;;;20.90;99.90;;;;;;5088873;28;20494;-58
2021/06/09 08:24:53;;;;;;;2.05;1.88;;;20.90;99.90;;;;;;5081743;28;20039;-58
2021/06/09 08:27:19;;;;;;;2.17;1.98;;;21.00;99.90;;;;;;5068575;28;20553;-58
2021/06/09 08:29:45;;;;;;;1.88;1.73;;;20.80;99.90;;;;;;5068400;28;20029;-58
2021/06/09 08:32:10;;;;;;;2.10;1.90;;;21.00;99.90;;;;;;5067423;28;20024;-58
2021/06/09 08:34:36;;;;;;;1.83;1.73;;;21.10;99.90;;;;;;5067908;28;20114;-58
2021/06/09 08:37:02;;;;;;;1.80;1.70;;;21.20;99.90;;;;;;5075909;28;20043;-58
2021/06/09 08:39:28;;;;;;;1.88;1.70;;;21.20;99.90;;;;;;5078688;28;20028;-58
2021/06/09 08:41:56;;;;;;;1.70;1.60;;;21.30;99.90;;;;;;5071895;28;20024;-58
2021/06/09 08:44:23;;;;;;;1.60;1.50;;;21.30;99.90;;;;;;5067839;28;20363;-58
2021/06/09 08:46:49;;;;;;;1.88;1.77;;;21.30;99.90;;;;;;5068312;28;20032;-58
2021/06/09 08:49:18;;;;;;;1.73;1.63;;;21.40;99.90;;;;;;5068136;28;20037;-58
2021/06/09 08:51:45;;;;;;;1.88;1.77;;;21.30;99.90;;;;;;5068058;28;20034;-58
2021/06/09 08:54:11;;;;;;;2.00;1.80;;;21.30;99.90;;;;;;5089544;28;20103;-58
2021/06/09 08:56:38;;;;;;;1.80;1.70;;;21.30;99.90;;;;;;5090924;28;20035;-58
2021/06/09 08:59:05;;;;;;;1.90;1.73;;;21.20;99.90;;;;;;5088659;28;20048;-58
2021/06/09 09:01:33;;;;;;;1.95;1.85;;;21.40;99.90;;;;;;5088153;28;20032;-58
2021/06/09 09:03:59;;;;;;;2.10;1.90;;;21.50;99.90;;;;;;5088047;28;20120;-58
2021/06/09 09:06:25;;;;;;;1.95;1.85;;;21.40;99.90;;;;;;5077698;28;20081;-59
2021/06/09 09:08:54;;;;;;;1.85;1.75;;;21.50;99.90;;;;;;5082754;28;20363;-58
2021/06/09 09:11:23;;;;;;;2.60;2.20;;;21.40;99.90;;;;;;5090645;28;20060;-59
2021/06/09 09:13:49;;;;;;;2.45;2.25;;;21.40;99.90;;;;;;5073062;28;20066;-58
2021/06/09 09:16:15;;;;;;;2.05;1.85;;;21.50;99.90;;;;;;5071409;28;20060;-59
2021/06/09 09:18:42;;;;;;;2.03;1.80;;;21.60;99.90;;;;;;5087394;28;20079;-58
2021/06/09 09:21:10;;;;;;;2.25;2.05;;;21.70;99.90;;;;;;5080889;28;20012;-58
2021/06/09 09:23:37;;;;;;;1.83;1.73;;;21.90;99.90;;;;;;5075956;28;20028;-58
2021/06/09 09:26:33;;;;;;;1.80;1.70;;;22.00;99.90;;;;;;5098616;28;20028;-59
2021/06/09 09:29:16;;;;;;;1.60;1.50;;;22.00;99.90;;;;;;5088090;28;20078;-58
2021/06/09 09:31:50;;;;;;;1.95;1.85;;;21.90;99.90;;;;;;5107853;28;20038;-59
2021/06/09 09:34:33;;;;;;;2.08;1.98;;;22.00;99.90;;;;;;5093003;28;20032;-58
2021/06/09 09:37:07;;;;;;;1.80;1.70;;;22.00;99.90;;;;;;5087046;28;20028;-59
2021/06/09 09:39:35;;;;;;;2.17;1.98;;;22.10;99.90;;;;;;5087663;28;20042;-58
2021/06/09 09:42:34;;;;;;;2.30;2.05;;;22.10;99.90;;;;;;5094657;28;20088;-58
2021/06/09 09:45:27;;;;;;;1.67;1.58;;;22.40;99.90;;;;;;5107338;28;20044;-58
2021/06/09 09:48:19;;;;;;;2.03;1.73;;;22.40;99.90;;;;;;5106800;28;20081;-59
2021/06/09 09:50:48;;;;;;;2.17;1.98;;;22.30;99.90;;;;;;5106673;28;20413;-58
2021/06/09 09:53:28;;;;;;;2.17;1.98;;;22.20;99.90;;;;;;5107486;28;20539;-58
2021/06/09 09:56:07;;;;;;;2.17;2.05;;;22.10;99.90;;;;;;5107105;28;20520;-58
2021/06/09 09:58:36;;;;;;;2.30;2.10;;;22.10;99.90;;;;;;5107684;28;20049;-58
2021/06/09 10:01:11;;;;;;;2.33;2.13;;;22.10;99.90;;;;;;5108165;28;20020;-58
2021/06/09 10:03:39;;;;;;;3.00;2.70;;;22.20;99.90;;;;;;5107305;28;20027;-58
2021/06/09 10:06:30;;;;;;;2.22;2.03;;;22.40;99.90;;;;;;5107966;28;20024;-59
2021/06/09 10:08:59;;;;;;;2.10;1.90;;;22.50;99.90;;;;;;5106986;28;20111;-58
2021/06/09 10:11:26;;;;;;;2.47;2.22;;;22.60;99.90;;;;;;5087379;28;20401;-58
2021/06/09 10:13:52;;;;;;;2.65;2.45;;;22.80;99.90;;;;;;5086580;28;20028;-58
2021/06/09 10:16:22;;;;;;;2.15;1.95;;;22.90;99.90;;;;;;5086397;28;20450;-58
2021/06/09 10:18:58;;;;;;;1.95;1.67;;;23.00;99.90;;;;;;5086611;28;20074;-58
2021/06/09 10:21:24;;;;;;;1.95;1.85;;;23.00;99.90;;;;;;5082251;28;20024;-58
2021/06/09 10:23:50;;;;;;;2.42;2.22;;;22.90;99.90;;;;;;5073155;28;20039;-58
2021/06/09 10:26:17;;;;;;;2.65;2.45;;;23.00;99.90;;;;;;5075497;28;20440;-58
2021/06/09 10:29:04;;;;;;;1.98;1.88;;;23.00;99.90;;;;;;5080797;28;20107;-58
2021/06/09 10:31:39;;;;;;;1.95;1.77;;;23.10;99.90;;;;;;5068842;28;20411;-58
2021/06/09 10:34:05;;;;;;;1.73;1.63;;;23.20;99.90;;;;;;5075936;28;20038;-58
2021/06/09 10:36:38;;;;;;;1.92;1.83;;;23.30;99.90;;;;;;5086800;28;20020;-58
2021/06/09 10:39:05;;;;;;;2.20;2.00;;;23.30;99.90;;;;;;5072918;28;20107;-59
2021/06/09 10:41:31;;;;;;;1.95;1.85;;;23.20;99.90;;;;;;5066568;28;20051;-58
2021/06/09 10:43:59;;;;;;;2.05;1.95;;;23.30;99.90;;;;;;5066026;28;20108;-58
2021/06/09 10:46:26;;;;;;;3.00;2.70;;;23.50;99.90;;;;;;5065495;28;20028;-59
2021/06/09 10:48:59;;;;;;;2.22;2.10;;;23.50;99.90;;;;;;5065454;28;20464;-58
2021/06/09 10:51:25;;;;;;;2.30;2.10;;;23.80;99.90;;;;;;5081631;28;20032;-58
2021/06/09 10:53:51;;;;;;;1.95;1.85;;;23.90;99.90;;;;;;5069494;28;20063;-58
2021/06/09 10:56:18;;;;;;;2.30;2.10;;;23.90;99.90;;;;;;5071442;28;20046;-58
2021/06/09 10:58:46;;;;;;;2.30;2.13;;;23.90;99.90;;;;;;5085925;28;20024;-58
2021/06/09 11:01:13;;;;;;;2.30;2.10;;;23.90;99.90;;;;;;5079913;28;20495;-58
2021/06/09 11:03:46;;;;;;;2.60;2.25;;;23.90;99.90;;;;;;5066145;28;20033;-58
2021/06/09 11:06:12;;;;;;;1.92;1.83;;;23.90;99.90;;;;;;5071552;28;20424;-58
2021/06/09 11:08:39;;;;;;;2.13;1.92;;;24.00;99.90;;;;;;5097232;28;20028;-58
2021/06/09 11:11:25;;;;;;;2.33;2.13;;;24.00;99.90;;;;;;5086776;28;20490;-58
2021/06/09 11:13:51;;;;;;;2.55;2.35;;;23.90;99.90;;;;;;5075291;28;20068;-58
2021/06/09 11:16:18;;;;;;;2.47;2.28;;;23.80;99.90;;;;;;5067413;28;20051;-58
2021/06/09 11:18:48;;;;;;;2.20;2.00;;;23.90;99.90;;;;;;5069700;28;20025;-58
2021/06/09 11:21:22;;;;;;;2.00;1.90;;;23.70;99.90;;;;;;5081286;28;20020;-58
2021/06/09 11:23:48;;;;;;;2.28;2.08;;;23.90;99.90;;;;;;5080357;28;20039;-58
2021/06/09 11:26:43;;;;;;;1.55;1.45;;;24.00;99.90;;;;;;5070686;28;20154;-58
2021/06/09 11:29:35;;;;;;;2.60;2.40;;;24.10;99.90;;;;;;5065057;28;20037;-59
2021/06/09 11:32:22;;;;;;;2.28;2.08;;;24.30;99.90;;;;;;5072732;28;20125;-59
2021/06/09 11:34:59;;;;;;;2.50;2.30;;;24.40;99.90;;;;;;5077138;28;20061;-60
2021/06/09 11:37:26;;;;;;;2.25;2.05;;;24.60;99.90;;;;;;5088485;28;20028;-59
2021/06/09 11:39:59;;;;;;;2.83;2.63;;;24.70;99.90;;;;;;5075769;28;20398;-59
2021/06/09 11:42:25;;;;;;;2.28;2.08;;;24.60;99.90;;;;;;5085506;28;20037;-59
2021/06/09 11:44:52;;;;;;;2.08;1.88;;;24.90;99.90;;;;;;5081629;28;20050;-59
2021/06/09 11:47:29;;;;;;;2.13;1.98;;;25.10;99.90;;;;;;5085467;28;20020;-59
2021/06/09 11:50:15;;;;;;;3.35;2.28;;;25.30;99.90;;;;;;5068086;28;20032;-59
2021/06/09 11:53:20;;;;;;;1.88;1.77;;;25.40;99.90;;;;;;5075273;28;20035;-59
2021/06/09 11:56:12;;;;;;;2.20;2.00;;;25.40;99.90;;;;;;5088450;28;20032;-58
2021/06/09 11:58:39;;;;;;;2.30;2.10;;;25.50;99.90;;;;;;5070927;28;20153;-58
2021/06/09 12:01:07;;;;;;;3.40;3.08;;;25.50;99.90;;;;;;5069954;28;20062;-58
2021/06/09 12:03:34;;;;;;;3.25;2.95;;;25.30;99.90;;;;;;5069757;28;20074;-59
2021/06/09 12:06:21;;;;;;;2.60;2.40;;;25.60;99.90;;;;;;5069188;28;20103;-58
2021/06/09 12:08:51;;;;;;;2.28;2.08;;;25.90;99.90;;;;;;5070752;28;20033;-58
2021/06/09 12:11:18;;;;;;;2.60;2.40;;;26.10;99.90;;;;;;5089379;28;20059;-58
2021/06/09 12:13:44;;;;;;;2.80;2.30;;;26.30;99.90;;;;;;5086781;28;20024;-58
2021/06/09 12:16:20;;;;;;;2.15;2.05;;;26.50;99.90;;;;;;5088600;28;20020;-58
2021/06/09 12:18:48;;;;;;;2.10;1.95;;;26.40;99.90;;;;;;5089195;28;20032;-58
2021/06/09 12:21:17;;;;;;;2.50;2.30;;;26.20;99.90;;;;;;5089114;28;20028;-58
2021/06/09 12:23:58;;;;;;;2.78;2.58;;;26.50;99.90;;;;;;5089382;28;20031;-58
2021/06/09 12:26:25;;;;;;;3.60;2.38;;;26.30;99.90;;;;;;5088757;28;20103;-58
2021/06/09 12:29:22;;;;;;;2.17;1.98;;;26.50;99.90;;;;;;5088962;28;20114;-58
2021/06/09 12:31:47;;;;;;;2.55;2.17;;;26.90;99.90;;;;;;5092558;28;20490;-58
2021/06/09 12:34:32;;;;;;;1.90;1.80;;;26.90;99.90;;;;;;5088640;28;20089;-58
2021/06/09 12:37:06;;;;;;;;;;;27.10;99.90;;;;;;5089240;28;20016;-58
2021/06/09 12:39:32;;;;;;;2.60;2.40;;;27.30;99.90;;;;;;5089455;28;19904;-58
2021/06/09 12:41:59;;;;;;;2.22;2.10;;;27.10;99.90;;;;;;5088699;28;20051;-58
2021/06/09 12:44:27;;;;;;;2.13;1.92;;;27.00;99.90;;;;;;5088578;28;20032;-58
2021/06/09 12:47:01;;;;;;;2.08;1.98;;;27.00;99.90;;;;;;5089036;28;20024;-58
2021/06/09 12:49:32;;;;;;;2.10;2.00;;;26.90;99.90;;;;;;5088203;28;20044;-58
2021/06/09 12:52:07;;;;;;;2.30;2.10;;;27.30;99.90;;;;;;5088671;28;20043;-58
2021/06/09 12:54:33;;;;;;;2.70;2.50;;;27.30;99.90;;;;;;5089053;28;20020;-58
2021/06/09 12:56:59;;;;;;;2.60;2.40;;;27.00;99.90;;;;;;5088306;28;20051;-58
2021/06/09 12:59:33;;;;;;;2.78;2.45;;;26.70;99.90;;;;;;5088195;28;20028;-58
2021/06/09 13:01:59;;;;;;;2.40;2.20;;;27.00;99.90;;;;;;5088739;28;20100;-58